Terminal Aerodrome Forecast
Issued by NWS Northern Indiana

Home | Current Version | Previous Version | Text Only | Print | Product List | Glossary On
Versions: 1 2 3 4 5 6 7 8 9 10 11 12 13 14 15 16 17
000
FTUS43 KIWX 292320
TAFFWA
TAF
KFWA 292320Z 3000/3024 36005KT P6SM OVC025
     FM300200 06005KT P6SM BKN035
     FM301200 07012G18KT P6SM OVC060
     FM301700 09013G20KT P6SM -RA OVC030
     FM301900 09013G20KT 5SM -RA BR OVC015
     FM302200 10013G20KT 2SM -RA BR OVC008=

USA.gov is the U.S. government's official web portal to all federal, state and local government web resources and services.